Time;durP1;ratioP1;P1;durP2;ratioP2;P2;SDS_P1;SDS_P2;PMS_P1;PMS_P2;Temp;Humidity;BMP_temperature;BMP_pressure;BME280_temperature;BME280_humidity;BME280_pressure;Samples;Min_cycle;Max_cycle;Signal;HPM_P1;HPM_P2
2021/05/31 00:01:39;;;;;;;7.38;6.05;;;;;;;8.72;100.00;96890.97;4985415;28;20098;-67
2021/05/31 00:04:07;;;;;;;6.80;5.72;;;;;;;8.76;100.00;96887.97;4978455;28;20086;-66
2021/05/31 00:06:42;;;;;;;8.02;5.93;;;;;;;8.66;100.00;96892.28;4985176;28;20085;-68
2021/05/31 00:09:10;;;;;;;6.82;6.13;;;;;;;8.58;100.00;96884.19;4983442;28;20069;-67
2021/05/31 00:11:38;;;;;;;6.35;5.68;;;;;;;8.68;100.00;96890.38;4982132;28;20085;-67
2021/05/31 00:14:06;;;;;;;9.25;5.50;;;;;;;8.74;100.00;96891.66;4988538;28;20062;-67
2021/05/31 00:16:35;;;;;;;6.60;5.95;;;;;;;8.66;100.00;96894.91;4986489;28;20062;-67
2021/05/31 00:19:04;;;;;;;7.45;5.78;;;;;;;8.65;100.00;96884.53;4994480;28;20545;-67
2021/05/31 00:21:32;;;;;;;7.10;5.95;;;;;;;8.62;100.00;96882.97;4988371;28;20082;-67
2021/05/31 00:24:01;;;;;;;6.10;5.50;;;;;;;8.67;100.00;96877.34;4987206;28;20062;-66
2021/05/31 00:26:29;;;;;;;7.80;5.80;;;;;;;8.63;100.00;96882.00;4986237;28;20480;-67
2021/05/31 00:28:57;;;;;;;9.00;5.90;;;;;;;8.66;100.00;96879.13;4984822;28;20062;-67
2021/05/31 00:31:25;;;;;;;6.97;5.85;;;;;;;8.61;100.00;96880.47;4983108;28;20058;-67
2021/05/31 00:33:52;;;;;;;6.57;5.60;;;;;;;8.63;100.00;96879.38;4991869;28;20077;-68
2021/05/31 00:36:20;;;;;;;7.30;6.13;;;;;;;8.65;100.00;96877.47;4982403;28;20335;-67
2021/05/31 00:38:49;;;;;;;6.95;6.20;;;;;;;8.56;100.00;96875.56;4978935;28;20065;-67
2021/05/31 00:41:17;;;;;;;6.40;5.80;;;;;;;8.61;100.00;96877.84;4980332;28;20073;-66
2021/05/31 00:43:46;;;;;;;7.07;6.22;;;;;;;8.60;100.00;96876.16;4982315;28;20089;-66
2021/05/31 00:46:14;;;;;;;7.38;5.97;;;;;;;8.47;100.00;96873.69;4989440;28;20077;-68
2021/05/31 00:48:42;;;;;;;7.72;6.13;;;;;;;8.52;100.00;96884.66;4988881;28;20528;-68
2021/05/31 00:51:13;;;;;;;6.80;6.10;;;;;;;8.44;100.00;96885.28;4985760;28;20066;-67
2021/05/31 00:53:41;;;;;;;7.05;6.10;;;;;;;8.38;100.00;96880.50;4989595;28;20077;-67
2021/05/31 00:56:08;;;;;;;7.60;6.00;;;;;;;8.20;100.00;96872.22;4983361;28;20070;-67
2021/05/31 00:58:38;;;;;;;9.82;5.72;;;;;;;8.21;100.00;96873.91;4979886;28;20454;-67
2021/05/31 01:01:07;;;;;;;8.90;6.30;;;;;;;8.19;100.00;96875.81;4967801;28;20078;-67
2021/05/31 01:03:35;;;;;;;7.00;5.82;;;;;;;8.13;100.00;96864.97;4984281;28;20099;-66
2021/05/31 01:06:06;;;;;;;7.35;5.95;;;;;;;8.00;100.00;96871.16;4984820;28;20066;-68
2021/05/31 01:08:39;;;;;;;7.35;6.60;;;;;;;8.11;100.00;96877.38;4985092;28;20065;-67
2021/05/31 01:11:11;;;;;;;6.80;6.13;;;;;;;8.02;100.00;96864.00;4981854;28;20073;-67
2021/05/31 01:13:43;;;;;;;7.93;6.60;;;;;;;8.02;100.00;96866.63;4982908;28;20464;-67
2021/05/31 01:16:14;;;;;;;7.45;6.65;;;;;;;8.01;100.00;96869.34;4982350;28;20075;-66
2021/05/31 01:18:44;;;;;;;9.73;6.80;;;;;;;7.89;100.00;96857.19;4986185;28;20070;-67
2021/05/31 01:21:24;;;;;;;8.00;6.75;;;;;;;7.83;100.00;96861.09;4989168;28;20077;-67
2021/05/31 01:24:00;;;;;;;8.20;7.40;;;;;;;7.73;100.00;96866.22;4980128;28;20074;-67
2021/05/31 01:26:34;;;;;;;8.73;6.45;;;;;;;7.61;100.00;96867.16;4980509;28;20468;-67
2021/05/31 01:29:06;;;;;;;7.03;6.18;;;;;;;7.58;100.00;96862.97;4981759;28;20092;-67
2021/05/31 01:31:41;;;;;;;7.10;6.40;;;;;;;7.47;100.00;96859.50;4985174;28;20069;-67
2021/05/31 01:34:11;;;;;;;6.70;6.00;;;;;;;7.25;100.00;96849.75;4981787;28;20086;-65
2021/05/31 01:36:44;;;;;;;6.82;5.97;;;;;;;7.09;100.00;96855.34;4992922;28;20066;-66
2021/05/31 01:39:13;;;;;;;7.55;6.65;;;;;;;7.07;100.00;96852.81;4985895;28;20521;-66
2021/05/31 01:41:42;;;;;;;8.80;7.15;;;;;;;7.16;100.00;96848.69;4982824;28;20066;-67
2021/05/31 01:44:12;;;;;;;9.13;6.95;;;;;;;7.16;100.00;96846.06;4983881;28;20088;-67
2021/05/31 01:46:40;;;;;;;6.93;6.22;;;;;;;7.03;100.00;96842.66;4986521;28;20061;-67
2021/05/31 01:49:09;;;;;;;7.57;6.88;;;;;;;6.94;100.00;96843.34;4982630;28;20082;-68
2021/05/31 01:51:38;;;;;;;7.53;6.75;;;;;;;6.89;100.00;96843.69;4987594;28;20070;-67
2021/05/31 01:54:07;;;;;;;7.13;6.43;;;;;;;6.96;100.00;96846.69;4963653;28;20074;-67
2021/05/31 01:56:35;;;;;;;8.10;6.72;;;;;;;6.85;100.00;96844.84;4986527;28;20065;-67
2021/05/31 01:59:04;;;;;;;8.98;7.32;;;;;;;6.84;100.00;96840.53;4989022;28;20516;-67
2021/05/31 02:01:33;;;;;;;8.25;7.38;;;;;;;6.90;100.00;96840.09;4969754;28;20080;-67
2021/05/31 02:04:02;;;;;;;7.75;6.72;;;;;;;6.88;100.00;96840.22;4994277;28;20062;-67
2021/05/31 02:06:29;;;;;;;9.70;7.57;;;;;;;6.85;100.00;96837.81;4990551;28;20547;-68
2021/05/31 02:08:58;;;;;;;8.15;7.30;;;;;;;6.86;100.00;96834.25;4988961;28;20065;-67
2021/05/31 02:11:29;;;;;;;8.90;7.03;;;;;;;6.77;100.00;96840.16;4967382;28;20054;-67
2021/05/31 02:14:01;;;;;;;8.70;7.50;;;;;;;6.78;100.00;96825.25;4992533;28;20069;-68
2021/05/31 02:16:37;;;;;;;7.78;6.65;;;;;;;6.77;100.00;96828.84;4985540;28;20067;-67
2021/05/31 02:19:06;;;;;;;8.25;7.45;;;;;;;6.76;100.00;96828.00;4991872;28;20457;-67
2021/05/31 02:21:35;;;;;;;8.45;7.28;;;;;;;6.79;100.00;96821.72;4988276;28;20081;-66
2021/05/31 02:24:04;;;;;;;8.07;7.22;;;;;;;6.65;100.00;96838.44;4992589;28;20062;-66
2021/05/31 02:26:33;;;;;;;9.93;7.82;;;;;;;6.67;100.00;96826.03;4990333;28;20069;-67
2021/05/31 02:29:01;;;;;;;8.85;7.28;;;;;;;6.72;100.00;96823.94;4987602;28;20070;-67
2021/05/31 02:31:29;;;;;;;7.80;7.00;;;;;;;6.70;100.00;96828.44;4987314;28;20057;-66
2021/05/31 02:33:58;;;;;;;9.13;7.70;;;;;;;6.75;100.00;96815.03;4990465;28;20077;-67
2021/05/31 02:36:26;;;;;;;8.70;7.80;;;;;;;6.73;100.00;96809.03;4989597;28;20621;-66
2021/05/31 02:38:54;;;;;;;8.65;7.75;;;;;;;6.77;100.00;96810.50;4990508;28;20058;-67
2021/05/31 02:41:22;;;;;;;8.07;7.28;;;;;;;6.76;100.00;96807.03;4988401;28;20467;-67
2021/05/31 02:43:50;;;;;;;8.70;7.60;;;;;;;6.68;100.00;96804.16;4984860;28;20066;-66
2021/05/31 02:46:19;;;;;;;9.80;7.65;;;;;;;6.68;100.00;96809.41;4985665;28;20073;-67
2021/05/31 02:48:47;;;;;;;9.88;7.88;;;;;;;6.65;100.00;96814.84;4972451;28;20084;-66
2021/05/31 02:51:16;;;;;;;9.27;7.47;;;;;;;6.60;100.00;96823.03;4983857;28;20065;-67
2021/05/31 02:53:44;;;;;;;8.30;7.43;;;;;;;6.67;100.00;96812.94;4972693;28;20113;-69
2021/05/31 02:56:12;;;;;;;8.85;7.60;;;;;;;6.60;100.00;96809.09;4983415;28;20065;-68
2021/05/31 02:58:42;;;;;;;10.75;7.85;;;;;;;6.51;100.00;96812.41;4993591;28;20081;-68
2021/05/31 03:01:10;;;;;;;10.98;7.32;;;;;;;6.40;100.00;96814.00;4965345;28;20077;-68
2021/05/31 03:03:38;;;;;;;8.15;6.95;;;;;;;6.48;100.00;96810.00;4970163;28;20070;-68
2021/05/31 03:06:06;;;;;;;8.18;7.15;;;;;;;6.54;100.00;96799.91;4969686;28;20062;-69
2021/05/31 03:08:35;;;;;;;8.27;6.82;;;;;;;6.25;100.00;96804.63;4985625;28;20066;-68
2021/05/31 03:11:03;;;;;;;9.18;7.18;;;;;;;6.23;100.00;96808.28;4973511;28;20527;-68
2021/05/31 03:13:31;;;;;;;8.75;7.60;;;;;;;6.19;100.00;96802.44;4970628;28;20070;-71
2021/05/31 03:15:59;;;;;;;7.80;7.00;;;;;;;6.30;100.00;96805.13;4969738;28;20069;-69
2021/05/31 03:18:27;;;;;;;8.63;7.13;;;;;;;6.30;100.00;96810.38;4994471;28;20081;-69
2021/05/31 03:20:56;;;;;;;8.38;6.93;;;;;;;6.18;100.00;96806.00;4988295;28;20120;-69
2021/05/31 03:23:24;;;;;;;8.50;7.47;;;;;;;6.06;100.00;96823.44;4980128;28;20069;-68
2021/05/31 03:25:54;;;;;;;9.82;7.25;;;;;;;6.01;100.00;96822.06;4990236;28;20484;-68
2021/05/31 03:28:22;;;;;;;9.18;7.65;;;;;;;6.02;100.00;96821.09;4985747;28;20066;-69
2021/05/31 03:30:50;;;;;;;8.57;7.68;;;;;;;6.17;100.00;96817.44;4987821;28;20086;-69
2021/05/31 03:33:18;;;;;;;8.10;7.30;;;;;;;6.21;100.00;96808.41;4972664;28;20065;-70
2021/05/31 03:35:46;;;;;;;8.55;7.43;;;;;;;6.23;100.00;96810.91;4984764;28;20453;-68
2021/05/31 03:38:14;;;;;;;8.23;6.97;;;;;;;6.26;100.00;96811.50;4982083;28;20070;-70
2021/05/31 03:40:42;;;;;;;8.18;7.38;;;;;;;6.20;100.00;96821.63;4985598;28;20069;-69
2021/05/31 03:43:11;;;;;;;8.40;7.50;;;;;;;6.31;100.00;96829.53;4984854;28;20058;-68
2021/05/31 03:45:39;;;;;;;9.10;8.05;;;;;;;6.39;100.00;96830.66;4987103;28;20070;-69
2021/05/31 03:48:08;;;;;;;9.80;8.27;;;;;;;6.49;100.00;96824.75;4966978;28;20066;-69
2021/05/31 03:50:36;;;;;;;9.45;8.50;;;;;;;7.53;100.00;96807.38;4990902;28;20060;-70
2021/05/31 03:53:04;;;;;;;8.68;7.63;;;;;;;8.84;100.00;96797.94;4986483;28;20081;-69
2021/05/31 03:55:32;;;;;;;10.57;7.78;;;;;;;10.11;100.00;96800.34;4983021;28;20076;-69
2021/05/31 03:58:01;;;;;;;10.25;7.00;;;;;;;11.13;100.00;96785.16;4987854;28;20085;-68
2021/05/31 04:00:30;;;;;;;8.05;6.63;;;;;;;12.39;100.00;96783.97;4987488;28;20065;-69
2021/05/31 04:02:58;;;;;;;9.52;7.25;;;;;;;12.74;97.48;96788.47;4993529;28;20073;-69
2021/05/31 04:05:30;;;;;;;10.40;7.03;;;;;;;13.59;85.95;96782.75;4969243;28;20066;-69
2021/05/31 04:13:30;;;;;;;7.35;6.60;;;;;;;14.86;73.88;96777.50;4981706;28;20559;-71
2021/05/31 04:16:00;;;;;;;8.73;6.80;;;;;;;15.07;70.85;96782.34;4983912;28;20085;-68
2021/05/31 04:18:28;;;;;;;7.30;6.53;;;;;;;15.67;65.42;96784.72;4989328;28;20058;-67
2021/05/31 04:20:56;;;;;;;6.93;6.15;;;;;;;15.97;61.30;96777.84;4982792;28;20069;-69
2021/05/31 04:23:24;;;;;;;6.80;6.10;;;;;;;16.97;57.63;96778.06;4981797;28;20558;-68
2021/05/31 04:25:52;;;;;;;6.57;5.88;;;;;;;16.34;58.02;96776.34;4962923;28;20119;-68
2021/05/31 04:28:20;;;;;;;7.13;6.43;;;;;;;16.99;56.20;96773.38;4984523;28;20070;-68
2021/05/31 04:30:47;;;;;;;6.68;6.00;;;;;;;16.66;57.62;96774.56;4967759;28;20062;-70
2021/05/31 04:33:17;;;;;;;7.78;6.75;;;;;;;17.15;55.81;96777.75;4986922;28;20070;-69
2021/05/31 04:35:45;;;;;;;8.30;6.43;;;;;;;17.55;52.21;96770.44;4980556;28;20484;-68
2021/05/31 04:38:13;;;;;;;6.88;6.05;;;;;;;17.62;50.84;96776.72;4985094;28;20062;-68
2021/05/31 04:40:41;;;;;;;7.35;6.65;;;;;;;17.81;50.34;96783.38;4984205;28;20802;-68
2021/05/31 04:43:09;;;;;;;7.75;6.95;;;;;;;17.04;54.12;96779.00;4983616;28;20085;-69
2021/05/31 04:45:37;;;;;;;7.60;6.60;;;;;;;17.64;52.13;96779.19;4988349;28;20090;-68
2021/05/31 04:48:06;;;;;;;8.18;6.53;;;;;;;17.71;52.03;96777.47;4983480;28;20453;-69
2021/05/31 04:50:35;;;;;;;7.97;7.15;;;;;;;16.84;54.35;96791.94;4989495;28;20058;-68
2021/05/31 04:53:08;;;;;;;10.63;7.28;;;;;;;17.02;55.48;96781.00;4989187;28;20066;-69
2021/05/31 04:55:37;;;;;;;9.82;6.57;;;;;;;17.23;54.41;96784.88;4984811;28;20069;-73
2021/05/31 04:58:05;;;;;;;7.75;6.95;;;;;;;16.12;58.56;96785.94;4987037;28;20089;-68
2021/05/31 05:00:33;;;;;;;7.55;6.85;;;;;;;16.48;57.92;96788.13;4990393;28;20074;-69
2021/05/31 05:03:01;;;;;;;7.60;6.70;;;;;;;17.61;53.37;96780.38;4982673;28;20534;-68
2021/05/31 05:05:30;;;;;;;7.07;6.40;;;;;;;17.53;54.90;96783.94;5016646;23;20078;-59
2021/05/31 05:07:59;;;;;;;8.40;6.97;;;;;;;16.69;56.80;96793.69;4993187;28;20065;-58
2021/05/31 05:10:27;;;;;;;7.40;6.65;;;;;;;17.74;54.73;96790.44;4991175;28;20070;-58
2021/05/31 05:12:55;;;;;;;7.18;6.40;;;;;;;17.80;52.79;96792.41;4991474;28;20567;-58
2021/05/31 05:15:25;;;;;;;7.88;6.80;;;;;;;18.22;50.82;96790.97;4998323;28;20094;-60
2021/05/31 05:17:54;;;;;;;9.20;6.45;;;;;;;17.60;53.31;96786.72;4997903;28;20066;-58
2021/05/31 05:20:24;;;;;;;7.72;6.93;;;;;;;17.49;53.63;96781.84;4997442;28;20058;-59
2021/05/31 05:22:52;;;;;;;7.60;6.72;;;;;;;17.87;52.68;96782.66;4990955;28;20062;-59
2021/05/31 05:25:23;;;;;;;8.45;6.95;;;;;;;17.60;54.66;96776.06;4990916;28;20528;-60
2021/05/31 05:27:52;;;;;;;9.02;7.38;;;;;;;16.85;58.63;96779.47;5000137;28;20081;-59
2021/05/31 05:30:22;;;;;;;7.60;6.90;;;;;;;16.91;58.38;96789.41;4992855;28;20180;-60
2021/05/31 05:32:51;;;;;;;7.20;6.50;;;;;;;17.37;56.79;96776.09;4998608;28;20084;-58
2021/05/31 05:35:24;;;;;;;7.47;6.50;;;;;;;16.04;60.98;96783.31;4997665;28;20062;-61
2021/05/31 05:46:31;;;;;;;7.38;6.57;;;;;;;15.83;70.51;96789.19;4988096;28;20452;-58
2021/05/31 05:48:59;;;;;;;8.82;6.82;;;;;;;16.95;64.90;96793.38;4991886;28;20653;-58
2021/05/31 05:51:27;;;;;;;7.40;6.70;;;;;;;16.13;70.41;96787.59;4996932;28;20500;-58
2021/05/31 05:53:59;;;;;;;7.88;6.78;;;;;;;16.51;67.68;96793.09;4990355;28;20524;-60
2021/05/31 05:56:28;;;;;;;8.60;7.28;;;;;;;16.03;70.24;96787.78;4992210;28;20077;-62
2021/05/31 05:58:57;;;;;;;8.90;7.13;;;;;;;14.23;88.22;96800.00;4986434;28;20089;-60
2021/05/31 06:01:26;;;;;;;10.30;7.78;;;;;;;13.95;97.40;96797.56;4995117;28;20054;-60
2021/05/31 06:03:55;;;;;;;9.63;7.25;;;;;;;13.48;100.00;96791.78;4990966;28;20053;-59
2021/05/31 06:06:25;;;;;;;10.50;7.68;;;;;;;13.77;100.00;96794.16;4998692;28;20442;-58
2021/05/31 06:08:53;;;;;;;8.83;7.13;;;;;;;13.48;100.00;96791.78;4993085;28;20073;-57
2021/05/31 06:11:21;;;;;;;11.38;8.35;;;;;;;13.54;100.00;96793.81;4990922;28;20882;-59
2021/05/31 06:13:52;;;;;;;11.38;7.90;;;;;;;13.24;100.00;96800.38;4994814;28;20085;-54
2021/05/31 06:16:20;;;;;;;8.55;7.05;;;;;;;13.80;100.00;96793.84;4997625;28;20069;-61
2021/05/31 06:18:50;;;;;;;8.50;7.60;;;;;;;13.58;100.00;96791.69;4998895;28;20088;-58
2021/05/31 06:21:18;;;;;;;10.10;7.93;;;;;;;13.46;100.00;96797.25;4997455;28;20690;-54
2021/05/31 06:23:46;;;;;;;9.30;7.57;;;;;;;13.71;100.00;96792.13;4993766;28;20451;-59
2021/05/31 06:26:14;;;;;;;10.35;8.32;;;;;;;13.59;100.00;96796.81;4996678;28;20076;-57
2021/05/31 06:28:42;;;;;;;8.60;7.20;;;;;;;13.34;100.00;96798.47;4993893;28;20069;-60
2021/05/31 06:31:12;;;;;;;9.98;7.70;;;;;;;12.96;100.00;96800.41;4987581;28;20480;-57
2021/05/31 06:33:40;;;;;;;9.55;7.60;;;;;;;13.47;100.00;96783.00;4999878;28;20536;-59
2021/05/31 06:36:10;;;;;;;9.02;6.72;;;;;;;13.54;100.00;96792.00;4990696;28;20060;-58
2021/05/31 06:38:38;;;;;;;8.77;7.28;;;;;;;13.70;97.87;96783.34;4991951;28;20453;-61
2021/05/31 06:41:06;;;;;;;9.00;7.05;;;;;;;13.75;100.00;96794.28;4996293;28;20058;-58
2021/05/31 06:43:34;;;;;;;7.68;6.88;;;;;;;13.76;97.66;96789.81;4994481;28;20246;-61
2021/05/31 06:46:07;;;;;;;7.78;6.95;;;;;;;13.81;96.32;96784.88;5006153;28;20092;-58
2021/05/31 06:48:37;;;;;;;7.85;7.05;;;;;;;14.18;95.85;96786.41;5005500;28;20073;-56
2021/05/31 06:51:06;;;;;;;7.97;7.10;;;;;;;14.54;89.50;96784.41;4992217;28;20081;-60
2021/05/31 06:53:34;;;;;;;7.65;6.78;;;;;;;13.83;93.90;96788.19;4996872;28;20066;-59
2021/05/31 06:56:02;;;;;;;7.70;6.78;;;;;;;13.69;91.33;96786.94;4998165;28;20478;-60
2021/05/31 06:58:30;;;;;;;9.32;6.82;;;;;;;13.96;90.61;96785.97;4996521;28;20046;-60
2021/05/31 07:00:59;;;;;;;9.02;7.45;;;;;;;14.19;85.57;96788.91;5001676;28;21168;-58
2021/05/31 07:03:27;;;;;;;7.75;6.75;;;;;;;14.15;85.91;96786.72;4998440;28;20077;-57
2021/05/31 07:05:57;;;;;;;7.80;7.00;;;;;;;14.59;88.78;96786.56;4998476;28;20589;-58
2021/05/31 07:08:26;;;;;;;8.47;7.23;;;;;;;14.72;89.97;96786.94;4998704;28;20092;-60
2021/05/31 07:10:57;;;;;;;9.90;6.95;;;;;;;14.93;88.73;96783.81;5002585;28;20069;-60
2021/05/31 07:13:26;;;;;;;7.75;6.95;;;;;;;15.07;84.07;96783.22;4990331;28;20066;-60
2021/05/31 07:15:55;;;;;;;8.73;6.63;;;;;;;14.83;84.40;96783.16;4997005;28;20085;-57
2021/05/31 07:18:24;;;;;;;8.02;6.57;;;;;;;15.24;76.67;96786.69;4992104;28;20337;-61
2021/05/31 07:20:53;;;;;;;8.90;7.60;;;;;;;15.19;82.92;96778.38;4997423;28;20062;-59
2021/05/31 07:23:22;;;;;;;8.48;7.05;;;;;;;15.10;83.25;96788.16;4995038;28;20097;-57
2021/05/31 07:25:50;;;;;;;7.97;7.18;;;;;;;14.69;81.46;96793.44;5000946;28;20070;-58
2021/05/31 07:28:18;;;;;;;7.85;7.05;;;;;;;14.69;81.50;96790.78;4990207;28;20042;-58
2021/05/31 07:30:47;;;;;;;10.02;6.60;;;;;;;15.02;80.66;96782.03;5000551;28;20088;-57
2021/05/31 07:33:16;;;;;;;9.20;6.95;;;;;;;15.19;82.57;96786.34;5000402;28;20074;-60
2021/05/31 07:35:44;;;;;;;8.38;6.70;;;;;;;15.26;84.59;96790.00;4997908;28;20074;-54
2021/05/31 07:38:12;;;;;;;8.05;6.85;;;;;;;15.41;77.54;96785.69;4994162;28;20069;-59
2021/05/31 07:40:41;;;;;;;8.07;6.70;;;;;;;15.57;77.41;96784.84;4997447;28;20094;-59
2021/05/31 07:43:09;;;;;;;7.93;6.43;;;;;;;15.18;76.18;96782.88;4995861;28;20073;-60
2021/05/31 07:45:37;;;;;;;8.68;6.80;;;;;;;15.14;77.04;96786.88;4996594;28;20081;-59
2021/05/31 07:48:06;;;;;;;8.27;7.32;;;;;;;15.61;75.29;96783.50;4998137;28;20096;-58
2021/05/31 07:50:34;;;;;;;8.30;6.82;;;;;;;15.11;73.58;96779.22;4997785;28;20069;-61
2021/05/31 07:53:07;;;;;;;9.25;7.43;;;;;;;15.83;71.45;96776.72;5000804;28;20080;-57
2021/05/31 07:55:35;;;;;;;7.97;7.18;;;;;;;16.31;70.70;96782.88;5001537;28;20069;-58
2021/05/31 07:58:06;;;;;;;9.70;7.18;;;;;;;15.85;68.40;96781.84;4993625;28;20729;-56
2021/05/31 08:00:34;;;;;;;9.88;7.55;;;;;;;15.70;70.60;96783.53;4994948;28;20093;-59
2021/05/31 08:03:02;;;;;;;8.32;7.40;;;;;;;16.00;65.57;96779.31;4997400;28;20486;-59
2021/05/31 08:05:30;;;;;;;8.27;7.10;;;;;;;15.88;65.87;96779.69;4995735;28;20073;-59
2021/05/31 08:07:58;;;;;;;9.93;7.30;;;;;;;16.39;62.59;96779.34;4991305;28;20081;-59
2021/05/31 08:10:27;;;;;;;8.57;7.47;;;;;;;16.22;64.86;96780.41;4994808;28;20066;-58
2021/05/31 08:12:55;;;;;;;8.20;7.40;;;;;;;15.63;69.14;96781.53;4994837;28;20086;-58
2021/05/31 08:15:24;;;;;;;9.13;7.40;;;;;;;16.08;65.49;96769.47;4996847;28;20477;-57
2021/05/31 08:17:52;;;;;;;9.52;7.07;;;;;;;15.43;70.22;96777.56;4998155;28;20069;-57
2021/05/31 08:20:20;;;;;;;9.35;7.53;;;;;;;15.85;67.81;96772.03;4992487;28;20511;-58
2021/05/31 08:22:48;;;;;;;10.90;8.07;;;;;;;16.06;66.79;96778.63;5000186;28;20076;-58
2021/05/31 08:25:16;;;;;;;7.72;6.00;;;;;;;16.22;59.80;96765.28;4994741;28;20612;-59
2021/05/31 08:27:45;;;;;;;6.97;6.28;;;;;;;16.41;54.59;96777.31;5004022;28;20089;-59
2021/05/31 08:30:15;;;;;;;8.07;6.00;;;;;;;16.29;58.28;96776.06;4995468;28;20492;-59
2021/05/31 08:32:44;;;;;;;7.20;6.20;;;;;;;16.87;56.89;96773.97;4993415;28;20078;-58
2021/05/31 08:35:12;;;;;;;6.30;5.40;;;;;;;16.45;54.39;96781.31;4999405;28;20475;-58
2021/05/31 08:37:40;;;;;;;6.20;5.60;;;;;;;16.44;56.21;96782.31;4995866;28;20069;-59
2021/05/31 08:40:11;;;;;;;7.80;6.18;;;;;;;16.49;54.16;96773.81;4994811;28;20543;-59
2021/05/31 08:42:42;;;;;;;6.45;5.38;;;;;;;17.28;53.11;96779.84;4994300;28;20568;-59
2021/05/31 08:45:12;;;;;;;7.55;6.38;;;;;;;16.85;54.76;96780.28;4995568;28;20069;-56
2021/05/31 08:47:41;;;;;;;7.38;6.50;;;;;;;16.84;55.21;96778.63;4994362;28;20084;-59
2021/05/31 08:50:12;;;;;;;7.32;6.53;;;;;;;17.35;53.82;96770.13;4993821;28;20070;-60
2021/05/31 08:52:40;;;;;;;7.03;5.78;;;;;;;16.64;54.58;96769.41;4997877;28;20069;-59
2021/05/31 08:55:10;;;;;;;7.93;5.13;;;;;;;16.52;54.51;96776.13;4993563;28;20078;-57
2021/05/31 08:57:38;;;;;;;6.90;5.78;;;;;;;17.15;52.35;96774.28;4996519;28;20077;-58
2021/05/31 09:00:09;;;;;;;9.10;6.72;;;;;;;17.24;53.00;96778.50;4997665;28;20467;-60
2021/05/31 09:02:39;;;;;;;7.93;6.57;;;;;;;17.34;52.28;96765.78;4994219;28;20201;-59
2021/05/31 09:05:09;;;;;;;5.77;5.20;;;;;;;16.95;54.86;96768.59;4996298;28;20077;-59
2021/05/31 09:07:38;;;;;;;;;;;;;;;17.35;50.59;96753.31;4993152;28;20078;-60
2021/05/31 09:10:08;;;;;;;6.28;5.63;;;;;;;17.14;50.59;96769.97;4997340;28;20040;-58
2021/05/31 09:12:38;;;;;;;6.72;5.50;;;;;;;16.95;54.55;96761.41;4997215;28;20580;-59
2021/05/31 09:15:08;;;;;;;6.72;5.97;;;;;;;17.10;54.26;96761.47;4994184;28;20062;-58
2021/05/31 09:17:36;;;;;;;9.00;6.60;;;;;;;17.44;51.70;96761.03;4991721;28;20074;-59
2021/05/31 09:20:06;;;;;;;8.80;6.10;;;;;;;16.87;55.05;96760.66;4998320;28;20527;-59
2021/05/31 09:22:45;;;;;;;6.50;5.83;;;;;;;17.04;54.95;96764.88;4996190;28;20542;-59
2021/05/31 09:25:24;;;;;;;7.68;5.30;;;;;;;17.44;56.99;96763.69;4988835;28;20577;-59
2021/05/31 09:27:52;;;;;;;6.32;5.72;;;;;;;17.31;52.24;96759.00;4995089;28;20093;-59
2021/05/31 09:30:31;;;;;;;5.60;5.00;;;;;;;17.84;54.16;96758.19;4993622;28;20482;-60
2021/05/31 09:32:59;;;;;;;9.30;5.22;;;;;;;17.92;52.01;96761.59;4989370;28;20061;-59
2021/05/31 09:35:28;;;;;;;6.10;5.47;;;;;;;17.05;51.43;96761.19;4997914;28;20080;-59
2021/05/31 09:38:01;;;;;;;6.93;5.00;;;;;;;17.67;49.58;96765.50;4992144;28;20089;-59
2021/05/31 09:40:29;;;;;;;6.20;4.88;;;;;;;17.78;47.50;96765.91;4997019;28;20074;-59
2021/05/31 09:42:59;;;;;;;6.32;5.03;;;;;;;17.89;45.40;96766.47;4996356;28;20074;-59
2021/05/31 09:45:29;;;;;;;5.65;5.05;;;;;;;18.42;45.79;96764.53;4998568;28;20074;-59
2021/05/31 09:48:01;;;;;;;5.75;5.05;;;;;;;17.68;47.69;96765.31;4991698;28;20096;-58
2021/05/31 09:50:31;;;;;;;6.13;5.50;;;;;;;18.32;46.46;96755.97;4993330;28;20101;-58
2021/05/31 09:53:06;;;;;;;5.53;4.80;;;;;;;18.07;46.13;96768.81;4995396;28;20460;-56
2021/05/31 09:55:36;;;;;;;6.35;5.10;;;;;;;19.21;44.88;96756.59;4991016;28;20080;-60
2021/05/31 09:58:11;;;;;;;4.63;4.20;;;;;;;18.86;45.38;96758.31;4990133;28;20085;-57
2021/05/31 10:00:41;;;;;;;7.72;4.80;;;;;;;18.63;45.08;96763.75;4993549;28;20089;-60
2021/05/31 10:06:07;;;;;;;5.95;4.70;;;;;;;18.30;45.50;96758.81;4990485;28;20078;-60
2021/05/31 10:08:40;;;;;;;6.95;4.90;;;;;;;18.72;45.00;96760.81;4992328;28;20260;-56
2021/05/31 10:11:09;;;;;;;5.20;4.70;;;;;;;19.19;43.82;96762.13;4993853;28;20069;-62
2021/05/31 10:13:40;;;;;;;4.50;4.00;;;;;;;18.71;44.47;96760.97;4994850;28;20071;-57
2021/05/31 10:16:09;;;;;;;5.07;4.55;;;;;;;18.78;44.74;96755.72;4994303;28;20077;-59
2021/05/31 10:18:40;;;;;;;5.22;4.63;;;;;;;18.71;43.96;96750.28;5004807;28;20081;-59
2021/05/31 10:21:09;;;;;;;6.90;4.68;;;;;;;18.48;44.85;96755.78;4999356;28;20068;-59
2021/05/31 10:23:38;;;;;;;5.45;4.32;;;;;;;18.05;44.58;96757.47;4994478;28;20080;-57
2021/05/31 10:26:11;;;;;;;4.82;4.32;;;;;;;19.05;43.33;96751.50;5004410;28;20471;-57
2021/05/31 10:28:41;;;;;;;5.85;4.22;;;;;;;18.82;44.01;96748.97;4999861;28;20065;-59
2021/05/31 10:31:10;;;;;;;5.97;4.30;;;;;;;18.57;43.51;96753.81;4999976;28;20640;-60
2021/05/31 10:33:39;;;;;;;5.15;4.60;;;;;;;18.59;42.91;96739.28;4998789;28;20069;-55
2021/05/31 10:36:15;;;;;;;5.38;4.57;;;;;;;18.29;43.30;96751.00;4999466;28;20078;-59
2021/05/31 10:38:48;;;;;;;7.63;4.68;;;;;;;18.72;43.44;96744.78;4995857;28;20532;-55
2021/05/31 10:41:17;;;;;;;5.60;4.70;;;;;;;18.95;42.62;96741.13;4998642;28;20085;-59
2021/05/31 10:43:47;;;;;;;4.55;4.10;;;;;;;19.21;43.28;96738.69;4995193;28;20073;-58
2021/05/31 10:46:18;;;;;;;6.75;3.90;;;;;;;19.73;42.96;96739.34;5003501;28;20077;-58
2021/05/31 10:48:50;;;;;;;5.70;4.57;;;;;;;19.86;42.06;96744.78;5004522;28;20081;-59
2021/05/31 10:51:20;;;;;;;5.10;4.60;;;;;;;18.91;42.24;96734.50;4996522;28;20073;-60
2021/05/31 10:53:50;;;;;;;5.20;4.43;;;;;;;19.48;42.39;96738.94;5007953;28;20442;-57
2021/05/31 10:56:26;;;;;;;5.63;4.30;;;;;;;19.21;44.13;96735.19;4997118;28;20142;-58
2021/05/31 10:58:55;;;;;;;5.30;4.43;;;;;;;19.30;43.33;96739.38;4995211;28;20089;-59
2021/05/31 11:01:37;;;;;;;5.43;4.25;;;;;;;19.26;42.84;96734.63;4998794;28;20070;-59
2021/05/31 11:04:14;;;;;;;4.38;3.97;;;;;;;18.94;43.89;96742.97;4998260;28;20084;-59
2021/05/31 11:06:44;;;;;;;5.20;4.43;;;;;;;19.73;43.16;96733.19;5005844;23;20086;-68
2021/05/31 11:09:15;;;;;;;4.57;4.07;;;;;;;18.81;42.83;96733.97;4988573;28;20084;-69
2021/05/31 11:11:45;;;;;;;5.00;4.10;;;;;;;19.04;42.54;96737.31;4983635;28;20089;-67
2021/05/31 11:14:13;;;;;;;;;;;;;;;19.12;42.48;96739.00;4979265;28;20062;-71
2021/05/31 11:16:52;;;;;;;6.85;4.50;;;;;;;19.52;41.60;96734.84;4975033;28;19964;-67
2021/05/31 11:19:32;;;;;;;5.10;4.30;;;;;;;19.61;40.65;96731.00;4972150;28;20065;-70
2021/05/31 11:22:12;;;;;;;4.95;4.10;;;;;;;18.69;40.21;96731.78;4958824;28;20525;-68
2021/05/31 11:24:41;;;;;;;4.68;4.15;;;;;;;19.25;41.32;96735.66;4972703;28;20537;-70
2021/05/31 11:27:10;;;;;;;4.65;4.20;;;;;;;19.16;40.68;96741.09;4965812;28;20077;-68
2021/05/31 11:29:38;;;;;;;6.97;4.55;;;;;;;18.74;41.56;96744.59;4970661;28;20074;-68
2021/05/31 11:32:06;;;;;;;5.88;4.85;;;;;;;19.57;41.26;96731.56;4966180;28;20070;-68
2021/05/31 11:34:34;;;;;;;4.72;4.20;;;;;;;19.56;41.16;96728.06;4969353;28;20071;-68
2021/05/31 11:37:03;;;;;;;4.22;3.83;;;;;;;20.02;39.90;96732.09;4967480;28;20121;-69
2021/05/31 11:39:33;;;;;;;4.43;3.58;;;;;;;18.98;39.84;96722.84;4972421;28;20093;-68
2021/05/31 11:42:04;;;;;;;4.60;4.10;;;;;;;19.64;39.39;96719.09;4964516;28;20085;-71
2021/05/31 11:44:33;;;;;;;;;;;;;;;19.95;38.08;96721.34;4967178;28;20075;-68
2021/05/31 11:47:02;;;;;;;6.70;4.13;;;;;;;19.60;38.74;96720.50;4965478;28;19957;-68
2021/05/31 11:49:36;;;;;;;5.20;4.70;;;;;;;19.41;39.98;96724.69;4967907;28;20066;-69
2021/05/31 11:52:05;;;;;;;4.82;4.43;;;;;;;19.71;41.23;96729.84;4966496;28;20070;-73
2021/05/31 11:54:35;;;;;;;5.53;4.60;;;;;;;19.54;39.73;96721.25;4973439;28;20093;-67
2021/05/31 11:57:06;;;;;;;4.90;4.40;;;;;;;19.03;38.91;96718.78;4966303;28;20121;-68
2021/05/31 11:59:36;;;;;;;6.22;4.10;;;;;;;19.30;40.53;96707.28;4973678;28;20082;-70
2021/05/31 12:02:11;;;;;;;4.75;3.90;;;;;;;19.48;39.39;96709.50;4966133;28;20066;-68